sensor_id;sensor_type;location;lat;lon;timestamp;pressure;altitude;pressure_sealevel;temperature;humidity
36234;BME280;43467;50.890;5.982;2022-10-16T00:01:33;99766.25;;;15.21;85.13
36234;BME280;43467;50.890;5.982;2022-10-16T00:04:00;99763.38;;;15.24;84.64
36234;BME280;43467;50.890;5.982;2022-10-16T00:06:27;99765.06;;;15.25;84.74
36234;BME280;43467;50.890;5.982;2022-10-16T00:08:53;99757.81;;;15.27;84.61
36234;BME280;43467;50.890;5.982;2022-10-16T00:11:25;99752.81;;;15.22;84.67
36234;BME280;43467;50.890;5.982;2022-10-16T00:13:55;99753.34;;;15.27;84.37
36234;BME280;43467;50.890;5.982;2022-10-16T00:16:21;99750.19;;;15.33;84.34
36234;BME280;43467;50.890;5.982;2022-10-16T00:18:47;99748.94;;;15.26;84.01
36234;BME280;43467;50.890;5.982;2022-10-16T00:21:19;99748.84;;;15.28;84.06
36234;BME280;43467;50.890;5.982;2022-10-16T00:23:45;99752.81;;;15.22;84.22
36234;BME280;43467;50.890;5.982;2022-10-16T00:26:13;99749.91;;;15.25;83.55
36234;BME280;43467;50.890;5.982;2022-10-16T00:28:39;99747.25;;;15.25;83.80
36234;BME280;43467;50.890;5.982;2022-10-16T00:31:10;99745.34;;;15.27;83.89
36234;BME280;43467;50.890;5.982;2022-10-16T00:33:37;99745.44;;;15.26;83.49
36234;BME280;43467;50.890;5.982;2022-10-16T00:36:04;99728.28;;;15.17;83.82
36234;BME280;43467;50.890;5.982;2022-10-16T00:38:30;99736.03;;;15.20;84.04
36234;BME280;43467;50.890;5.982;2022-10-16T00:40:56;99736.19;;;15.19;83.54
36234;BME280;43467;50.890;5.982;2022-10-16T00:43:58;99737.22;;;15.16;83.41
36234;BME280;43467;50.890;5.982;2022-10-16T00:51:23;99747.16;;;15.14;83.40
36234;BME280;43467;50.890;5.982;2022-10-16T00:53:51;99740.88;;;15.15;83.36
36234;BME280;43467;50.890;5.982;2022-10-16T00:56:17;99749.94;;;15.13;83.10
36234;BME280;43467;50.890;5.982;2022-10-16T00:58:43;99762.78;;;15.08;82.94
36234;BME280;43467;50.890;5.982;2022-10-16T01:01:08;99762.88;;;15.06;82.45
36234;BME280;43467;50.890;5.982;2022-10-16T01:03:36;99763.28;;;15.13;82.57
36234;BME280;43467;50.890;5.982;2022-10-16T01:06:24;99762.34;;;15.01;82.17
36234;BME280;43467;50.890;5.982;2022-10-16T01:11:49;99755.44;;;14.99;81.84
36234;BME280;43467;50.890;5.982;2022-10-16T01:14:40;99752.84;;;14.97;82.27
36234;BME280;43467;50.890;5.982;2022-10-16T01:17:43;99762.56;;;14.98;81.54
36234;BME280;43467;50.890;5.982;2022-10-16T01:20:48;99766.41;;;14.94;81.06
36234;BME280;43467;50.890;5.982;2022-10-16T01:23:36;99759.06;;;14.85;81.14
36234;BME280;43467;50.890;5.982;2022-10-16T01:29:01;99776.53;;;14.89;81.03
36234;BME280;43467;50.890;5.982;2022-10-16T01:31:30;99775.28;;;14.82;80.95
36234;BME280;43467;50.890;5.982;2022-10-16T01:34:03;99772.94;;;14.77;80.90
36234;BME280;43467;50.890;5.982;2022-10-16T01:36:38;99778.91;;;14.81;81.45
36234;BME280;43467;50.890;5.982;2022-10-16T01:39:06;99785.94;;;14.82;81.28
36234;BME280;43467;50.890;5.982;2022-10-16T01:41:48;99782.50;;;14.80;81.02
36234;BME280;43467;50.890;5.982;2022-10-16T01:44:19;99785.19;;;14.80;81.21
36234;BME280;43467;50.890;5.982;2022-10-16T01:46:48;99789.56;;;14.81;81.55
36234;BME280;43467;50.890;5.982;2022-10-16T01:49:15;99777.50;;;14.75;81.63
36234;BME280;43467;50.890;5.982;2022-10-16T01:51:45;99777.50;;;14.75;81.67
36234;BME280;43467;50.890;5.982;2022-10-16T01:54:13;99795.84;;;14.80;81.56
36234;BME280;43467;50.890;5.982;2022-10-16T01:56:41;99794.47;;;14.74;82.02
36234;BME280;43467;50.890;5.982;2022-10-16T01:59:12;99786.34;;;14.76;82.01
36234;BME280;43467;50.890;5.982;2022-10-16T02:01:40;99790.72;;;14.77;82.15
36234;BME280;43467;50.890;5.982;2022-10-16T02:04:13;99791.81;;;14.74;82.26
36234;BME280;43467;50.890;5.982;2022-10-16T02:06:40;99785.94;;;14.69;82.34
36234;BME280;43467;50.890;5.982;2022-10-16T02:09:06;99787.00;;;14.67;82.64
36234;BME280;43467;50.890;5.982;2022-10-16T02:11:31;99784.00;;;14.71;82.90
36234;BME280;43467;50.890;5.982;2022-10-16T02:14:05;99786.03;;;14.68;82.82
36234;BME280;43467;50.890;5.982;2022-10-16T02:16:39;99782.72;;;14.77;82.59
36234;BME280;43467;50.890;5.982;2022-10-16T02:19:05;99790.81;;;14.75;82.67
36234;BME280;43467;50.890;5.982;2022-10-16T02:27:11;99781.78;;;14.78;83.06
36234;BME280;43467;50.890;5.982;2022-10-16T02:29:41;99779.97;;;14.78;83.10
36234;BME280;43467;50.890;5.982;2022-10-16T02:32:16;99756.53;;;14.71;83.08
36234;BME280;43467;50.890;5.982;2022-10-16T02:34:45;99785.41;;;14.77;83.51
36234;BME280;43467;50.890;5.982;2022-10-16T02:37:12;99790.72;;;14.77;83.44
36234;BME280;43467;50.890;5.982;2022-10-16T02:39:38;99777.00;;;14.70;83.62
36234;BME280;43467;50.890;5.982;2022-10-16T02:42:04;99783.28;;;14.69;83.63
36234;BME280;43467;50.890;5.982;2022-10-16T02:44:34;99800.00;;;14.71;83.76
36234;BME280;43467;50.890;5.982;2022-10-16T02:46:59;99802.03;;;14.68;84.07
36234;BME280;43467;50.890;5.982;2022-10-16T02:49:25;99796.81;;;14.66;84.12
36234;BME280;43467;50.890;5.982;2022-10-16T02:51:50;99786.78;;;14.70;84.15
36234;BME280;43467;50.890;5.982;2022-10-16T02:54:15;99780.59;;;14.69;84.16
36234;BME280;43467;50.890;5.982;2022-10-16T02:56:41;99778.03;;;14.68;84.29
36234;BME280;43467;50.890;5.982;2022-10-16T02:59:06;99772.84;;;14.79;83.88
36234;BME280;43467;50.890;5.982;2022-10-16T03:01:31;99779.22;;;14.76;83.99
36234;BME280;43467;50.890;5.982;2022-10-16T03:03:57;99779.84;;;14.67;84.35
36234;BME280;43467;50.890;5.982;2022-10-16T03:06:22;99783.81;;;14.62;84.83
36234;BME280;43467;50.890;5.982;2022-10-16T03:08:48;99775.91;;;14.60;85.06
36234;BME280;43467;50.890;5.982;2022-10-16T03:11:14;99788.19;;;14.63;84.97
36234;BME280;43467;50.890;5.982;2022-10-16T03:13:39;99785.84;;;14.58;85.51
36234;BME280;43467;50.890;5.982;2022-10-16T03:16:04;99786.56;;;14.60;85.48
36234;BME280;43467;50.890;5.982;2022-10-16T03:18:30;99793.38;;;14.64;85.26
36234;BME280;43467;50.890;5.982;2022-10-16T03:20:55;99794.25;;;14.65;85.48
36234;BME280;43467;50.890;5.982;2022-10-16T03:23:20;99798.94;;;14.74;85.07
36234;BME280;43467;50.890;5.982;2022-10-16T03:25:46;99793.72;;;14.72;84.83
36234;BME280;43467;50.890;5.982;2022-10-16T03:28:11;99790.19;;;14.72;85.48
36234;BME280;43467;50.890;5.982;2022-10-16T03:30:36;99787.19;;;14.64;85.63
36234;BME280;43467;50.890;5.982;2022-10-16T03:33:02;99792.13;;;14.57;86.05
36234;BME280;43467;50.890;5.982;2022-10-16T03:35:27;99813.44;;;14.57;86.21
36234;BME280;43467;50.890;5.982;2022-10-16T03:37:53;99810.13;;;14.54;86.48
36234;BME280;43467;50.890;5.982;2022-10-16T03:40:18;99816.19;;;14.56;86.55
36234;BME280;43467;50.890;5.982;2022-10-16T03:42:44;99820.16;;;14.50;86.73
36234;BME280;43467;50.890;5.982;2022-10-16T03:45:10;99807.00;;;14.47;86.87
36234;BME280;43467;50.890;5.982;2022-10-16T03:47:36;99805.00;;;14.51;86.67
36234;BME280;43467;50.890;5.982;2022-10-16T03:50:01;99811.59;;;14.45;86.91
36234;BME280;43467;50.890;5.982;2022-10-16T03:52:27;99818.66;;;14.46;86.86
36234;BME280;43467;50.890;5.982;2022-10-16T03:54:52;99819.69;;;14.43;87.07
36234;BME280;43467;50.890;5.982;2022-10-16T03:57:18;99820.03;;;14.52;86.94
36234;BME280;43467;50.890;5.982;2022-10-16T03:59:43;99824.72;;;14.48;87.36
36234;BME280;43467;50.890;5.982;2022-10-16T04:02:08;99823.84;;;14.48;87.38
36234;BME280;43467;50.890;5.982;2022-10-16T04:04:34;99826.41;;;14.49;87.40
36234;BME280;43467;50.890;5.982;2022-10-16T04:06:59;99824.06;;;14.45;87.56
36234;BME280;43467;50.890;5.982;2022-10-16T04:09:25;99821.09;;;14.49;87.48
36234;BME280;43467;50.890;5.982;2022-10-16T04:11:50;99821.09;;;14.49;87.51
36234;BME280;43467;50.890;5.982;2022-10-16T04:14:15;99815.13;;;14.46;87.72
36234;BME280;43467;50.890;5.982;2022-10-16T04:16:41;99816.16;;;14.43;87.62
36234;BME280;43467;50.890;5.982;2022-10-16T04:19:06;99823.22;;;14.44;87.63
36234;BME280;43467;50.890;5.982;2022-10-16T04:21:31;99826.00;;;14.43;87.97
36234;BME280;43467;50.890;5.982;2022-10-16T04:23:57;99833.22;;;14.40;87.99
36234;BME280;43467;50.890;5.982;2022-10-16T04:26:22;99840.03;;;14.45;88.07
36234;BME280;43467;50.890;5.982;2022-10-16T04:28:48;99850.06;;;14.41;88.25
36234;BME280;43467;50.890;5.982;2022-10-16T04:31:13;99861.56;;;14.41;88.44
36234;BME280;43467;50.890;5.982;2022-10-16T04:33:42;99869.00;;;14.36;88.58
36234;BME280;43467;50.890;5.982;2022-10-16T04:36:08;99872.44;;;14.38;88.70
36234;BME280;43467;50.890;5.982;2022-10-16T04:38:34;99868.50;;;14.44;88.39
36234;BME280;43467;50.890;5.982;2022-10-16T04:40:59;99858.34;;;14.36;88.56
36234;BME280;43467;50.890;5.982;2022-10-16T04:43:25;99858.13;;;14.39;88.50
36234;BME280;43467;50.890;5.982;2022-10-16T04:45:51;99860.81;;;14.39;88.52
36234;BME280;43467;50.890;5.982;2022-10-16T04:48:17;99860.44;;;14.31;88.64
36234;BME280;43467;50.890;5.982;2022-10-16T04:50:43;99863.09;;;14.31;88.64
36234;BME280;43467;50.890;5.982;2022-10-16T04:53:08;99877.84;;;14.37;88.64
36234;BME280;43467;50.890;5.982;2022-10-16T04:55:34;99882.13;;;14.39;88.61
36234;BME280;43467;50.890;5.982;2022-10-16T04:57:59;99880.22;;;14.27;89.31
36234;BME280;43467;50.890;5.982;2022-10-16T05:00:25;99883.09;;;14.24;89.43
36234;BME280;43467;50.890;5.982;2022-10-16T05:02:50;99888.44;;;14.24;89.63
36234;BME280;43467;50.890;5.982;2022-10-16T05:05:16;99888.66;;;14.21;89.73
36234;BME280;43467;50.890;5.982;2022-10-16T05:07:45;99889.28;;;14.25;89.63
36234;BME280;43467;50.890;5.982;2022-10-16T05:10:10;99890.03;;;14.27;89.73
36234;BME280;43467;50.890;5.982;2022-10-16T05:12:35;99887.28;;;14.28;89.56
36234;BME280;43467;50.890;5.982;2022-10-16T05:15:01;99893.75;;;14.24;90.17
36234;BME280;43467;50.890;5.982;2022-10-16T05:17:26;99895.34;;;14.27;90.09
36234;BME280;43467;50.890;5.982;2022-10-16T05:19:52;99900.03;;;14.23;90.20
36234;BME280;43467;50.890;5.982;2022-10-16T05:22:17;99904.19;;;14.27;90.04
36234;BME280;43467;50.890;5.982;2022-10-16T05:24:43;99906.78;;;14.29;90.11
36234;BME280;43467;50.890;5.982;2022-10-16T05:27:09;99914.56;;;14.32;90.10
36234;BME280;43467;50.890;5.982;2022-10-16T05:29:35;99923.50;;;14.31;90.09
36234;BME280;43467;50.890;5.982;2022-10-16T05:32:00;99917.34;;;14.30;90.11
36234;BME280;43467;50.890;5.982;2022-10-16T05:34:25;99914.75;;;14.29;90.23
36234;BME280;43467;50.890;5.982;2022-10-16T05:36:51;99919.44;;;14.25;90.62
36234;BME280;43467;50.890;5.982;2022-10-16T05:39:16;99926.47;;;14.26;90.60
36234;BME280;43467;50.890;5.982;2022-10-16T05:41:42;99933.50;;;14.27;90.60
36234;BME280;43467;50.890;5.982;2022-10-16T05:44:08;99938.81;;;14.27;90.52
36234;BME280;43467;50.890;5.982;2022-10-16T05:46:33;99936.38;;;14.24;90.88
36234;BME280;43467;50.890;5.982;2022-10-16T05:48:59;99945.50;;;14.20;91.29
36234;BME280;43467;50.890;5.982;2022-10-16T05:51:24;99937.59;;;14.19;91.19
36234;BME280;43467;50.890;5.982;2022-10-16T05:53:50;99939.41;;;14.18;91.24
36234;BME280;43467;50.890;5.982;2022-10-16T05:56:15;99939.63;;;14.15;91.51
36234;BME280;43467;50.890;5.982;2022-10-16T05:58:41;99950.75;;;14.22;91.21
36234;BME280;43467;50.890;5.982;2022-10-16T06:01:10;99955.22;;;14.21;91.16
36234;BME280;43467;50.890;5.982;2022-10-16T06:03:36;99960.34;;;14.24;91.15
36234;BME280;43467;50.890;5.982;2022-10-16T06:06:13;99948.91;;;14.22;91.17
36234;BME280;43467;50.890;5.982;2022-10-16T06:08:40;99962.78;;;14.27;90.86
36234;BME280;43467;50.890;5.982;2022-10-16T06:11:08;99952.03;;;14.29;90.46
36234;BME280;43467;50.890;5.982;2022-10-16T06:13:34;99963.00;;;14.24;90.63
36234;BME280;43467;50.890;5.982;2022-10-16T06:16:00;99969.09;;;14.26;90.72
36234;BME280;43467;50.890;5.982;2022-10-16T06:18:27;99990.19;;;14.29;90.39
36234;BME280;43467;50.890;5.982;2022-10-16T06:20:53;99983.16;;;14.28;90.35
36234;BME280;43467;50.890;5.982;2022-10-16T06:23:19;99984.38;;;14.23;90.99
36234;BME280;43467;50.890;5.982;2022-10-16T06:25:44;99992.50;;;14.21;90.88
36234;BME280;43467;50.890;5.982;2022-10-16T06:28:10;99995.03;;;14.23;90.90
36234;BME280;43467;50.890;5.982;2022-10-16T06:30:35;99999.34;;;14.25;90.99
36234;BME280;43467;50.890;5.982;2022-10-16T06:33:01;99996.47;;;14.28;90.87
36234;BME280;43467;50.890;5.982;2022-10-16T06:35:26;99999.22;;;14.27;90.75
36234;BME280;43467;50.890;5.982;2022-10-16T06:37:53;100000.19;;;14.26;90.95
36234;BME280;43467;50.890;5.982;2022-10-16T06:40:18;100007.31;;;14.25;91.10
36234;BME280;43467;50.890;5.982;2022-10-16T06:42:43;100010.16;;;14.22;91.10
36234;BME280;43467;50.890;5.982;2022-10-16T06:45:09;100012.44;;;14.28;91.01
36234;BME280;43467;50.890;5.982;2022-10-16T06:47:35;100017.13;;;14.25;91.27
36234;BME280;43467;50.890;5.982;2022-10-16T06:50:00;100016.34;;;14.23;91.11
36234;BME280;43467;50.890;5.982;2022-10-16T06:52:28;100020.63;;;14.25;91.04
36234;BME280;43467;50.890;5.982;2022-10-16T06:54:53;100028.72;;;14.24;91.00
36234;BME280;43467;50.890;5.982;2022-10-16T06:57:18;100021.66;;;14.23;91.10
36234;BME280;43467;50.890;5.982;2022-10-16T06:59:44;100031.28;;;14.25;90.90
36234;BME280;43467;50.890;5.982;2022-10-16T07:02:10;100030.34;;;14.26;90.70
36234;BME280;43467;50.890;5.982;2022-10-16T07:04:36;100046.00;;;14.31;90.47
36234;BME280;43467;50.890;5.982;2022-10-16T07:07:01;100048.66;;;14.31;90.30
36234;BME280;43467;50.890;5.982;2022-10-16T07:09:27;100044.03;;;14.34;90.23
36234;BME280;43467;50.890;5.982;2022-10-16T07:11:52;100051.84;;;14.37;90.24
36234;BME280;43467;50.890;5.982;2022-10-16T07:14:20;100057.16;;;14.37;89.86
36234;BME280;43467;50.890;5.982;2022-10-16T07:16:46;100054.69;;;14.34;89.63
36234;BME280;43467;50.890;5.982;2022-10-16T07:19:12;100069.03;;;14.46;89.64
36234;BME280;43467;50.890;5.982;2022-10-16T07:21:40;100072.94;;;14.40;89.86
36234;BME280;43467;50.890;5.982;2022-10-16T07:24:10;100069.53;;;14.38;89.92
36234;BME280;43467;50.890;5.982;2022-10-16T07:26:36;100074.81;;;14.53;89.52
36234;BME280;43467;50.890;5.982;2022-10-16T07:29:04;100078.78;;;14.60;89.22
36234;BME280;43467;50.890;5.982;2022-10-16T07:31:30;100079.56;;;14.62;89.18
36234;BME280;43467;50.890;5.982;2022-10-16T07:33:58;100089.28;;;14.63;88.99
36234;BME280;43467;50.890;5.982;2022-10-16T07:36:23;100100.28;;;14.71;88.87
36234;BME280;43467;50.890;5.982;2022-10-16T07:38:49;100102.75;;;14.74;88.44
36234;BME280;43467;50.890;5.982;2022-10-16T07:41:16;100099.31;;;14.72;88.23
36234;BME280;43467;50.890;5.982;2022-10-16T07:43:47;100106.38;;;14.73;87.96
36234;BME280;43467;50.890;5.982;2022-10-16T07:46:13;100103.50;;;14.76;87.81
36234;BME280;43467;50.890;5.982;2022-10-16T07:48:39;100111.75;;;14.85;87.15
36234;BME280;43467;50.890;5.982;2022-10-16T07:51:06;100107.06;;;14.89;86.60
36234;BME280;43467;50.890;5.982;2022-10-16T07:53:32;100110.22;;;14.96;86.51
36234;BME280;43467;50.890;5.982;2022-10-16T07:55:59;100119.81;;;14.98;86.03
36234;BME280;43467;50.890;5.982;2022-10-16T07:58:25;100117.78;;;15.02;85.92
36234;BME280;43467;50.890;5.982;2022-10-16T08:00:51;100120.91;;;15.08;85.75
36234;BME280;43467;50.890;5.982;2022-10-16T08:03:16;100127.13;;;15.21;85.18
36234;BME280;43467;50.890;5.982;2022-10-16T08:05:41;100130.59;;;15.23;84.73
36234;BME280;43467;50.890;5.982;2022-10-16T08:08:12;100123.63;;;15.21;84.10
36234;BME280;43467;50.890;5.982;2022-10-16T08:10:38;100128.34;;;15.30;83.84
36234;BME280;43467;50.890;5.982;2022-10-16T08:13:03;100128.44;;;15.28;82.58
36234;BME280;43467;50.890;5.982;2022-10-16T08:15:28;100130.38;;;15.26;82.38
36234;BME280;43467;50.890;5.982;2022-10-16T08:18:04;100136.03;;;15.34;82.05
36234;BME280;43467;50.890;5.982;2022-10-16T08:20:31;100141.81;;;15.41;81.74
36234;BME280;43467;50.890;5.982;2022-10-16T08:22:56;100149.50;;;15.46;81.78
36234;BME280;43467;50.890;5.982;2022-10-16T08:25:23;100147.34;;;15.52;81.64
36234;BME280;43467;50.890;5.982;2022-10-16T08:27:49;100152.16;;;15.60;80.62
36234;BME280;43467;50.890;5.982;2022-10-16T08:30:16;100157.59;;;15.58;80.98
36234;BME280;43467;50.890;5.982;2022-10-16T08:32:41;100163.25;;;15.66;81.02
36234;BME280;43467;50.890;5.982;2022-10-16T08:35:08;100151.53;;;15.69;80.32
36234;BME280;43467;50.890;5.982;2022-10-16T08:37:34;100167.69;;;15.80;80.42
36234;BME280;43467;50.890;5.982;2022-10-16T08:40:00;100166.19;;;15.76;80.18
36234;BME280;43467;50.890;5.982;2022-10-16T08:42:29;100177.59;;;15.91;80.25
36234;BME280;43467;50.890;5.982;2022-10-16T08:50:29;100194.72;;;16.01;78.43
36234;BME280;43467;50.890;5.982;2022-10-16T08:52:56;100193.97;;;16.11;78.96
36234;BME280;43467;50.890;5.982;2022-10-16T08:55:33;100191.53;;;16.08;77.89
36234;BME280;43467;50.890;5.982;2022-10-16T08:58:02;100188.72;;;16.10;78.27
36234;BME280;43467;50.890;5.982;2022-10-16T09:00:34;100191.09;;;16.14;77.27
36234;BME280;43467;50.890;5.982;2022-10-16T09:08:42;100195.56;;;16.26;77.20
36234;BME280;43467;50.890;5.982;2022-10-16T09:11:17;100198.56;;;16.35;76.98
36234;BME280;43467;50.890;5.982;2022-10-16T09:13:58;100201.25;;;16.35;75.68
36234;BME280;43467;50.890;5.982;2022-10-16T09:16:35;100205.31;;;16.27;75.35
36234;BME280;43467;50.890;5.982;2022-10-16T09:21:38;100216.94;;;16.39;73.90
36234;BME280;43467;50.890;5.982;2022-10-16T09:24:18;100207.88;;;16.42;73.36
36234;BME280;43467;50.890;5.982;2022-10-16T09:26:44;100211.19;;;16.45;74.19
36234;BME280;43467;50.890;5.982;2022-10-16T09:29:14;100210.75;;;16.51;73.37
36234;BME280;43467;50.890;5.982;2022-10-16T09:31:41;100217.53;;;16.57;73.86
36234;BME280;43467;50.890;5.982;2022-10-16T09:34:20;100214.75;;;16.58;74.11
36234;BME280;43467;50.890;5.982;2022-10-16T09:36:50;100219.25;;;16.58;73.72
36234;BME280;43467;50.890;5.982;2022-10-16T09:39:16;100209.06;;;16.63;74.00
36234;BME280;43467;50.890;5.982;2022-10-16T09:41:44;100212.41;;;16.66;73.29
36234;BME280;43467;50.890;5.982;2022-10-16T09:44:23;100209.50;;;16.69;72.48
36234;BME280;43467;50.890;5.982;2022-10-16T09:47:01;100203.19;;;16.70;72.73
36234;BME280;43467;50.890;5.982;2022-10-16T09:49:26;100216.66;;;16.69;71.57
36234;BME280;43467;50.890;5.982;2022-10-16T09:52:12;100215.06;;;16.66;71.83
36234;BME280;43467;50.890;5.982;2022-10-16T09:54:49;100209.66;;;16.79;71.75
36234;BME280;43467;50.890;5.982;2022-10-16T09:57:14;100218.16;;;16.73;71.81
36234;BME280;43467;50.890;5.982;2022-10-16T09:59:51;100202.53;;;16.67;71.74
36234;BME280;43467;50.890;5.982;2022-10-16T10:02:20;100203.38;;;16.67;72.20
36234;BME280;43467;50.890;5.982;2022-10-16T10:04:51;100214.63;;;16.72;72.26
36234;BME280;43467;50.890;5.982;2022-10-16T10:07:24;100219.97;;;16.72;72.34
36234;BME280;43467;50.890;5.982;2022-10-16T10:09:50;100215.25;;;16.76;71.51
36234;BME280;43467;50.890;5.982;2022-10-16T10:12:19;100213.75;;;16.72;71.44
36234;BME280;43467;50.890;5.982;2022-10-16T10:14:48;100206.38;;;16.76;71.97
36234;BME280;43467;50.890;5.982;2022-10-16T10:17:20;100214.19;;;16.79;72.55
36234;BME280;43467;50.890;5.982;2022-10-16T10:19:54;100214.91;;;16.81;72.47
36234;BME280;43467;50.890;5.982;2022-10-16T10:27:26;100218.66;;;16.91;71.69
36234;BME280;43467;50.890;5.982;2022-10-16T10:30:18;100224.41;;;16.97;72.40
36234;BME280;43467;50.890;5.982;2022-10-16T10:36:05;100224.81;;;17.04;70.96
36234;BME280;43467;50.890;5.982;2022-10-16T10:38:48;100226.19;;;17.09;70.28
36234;BME280;43467;50.890;5.982;2022-10-16T10:44:11;100238.84;;;17.07;70.32
36234;BME280;43467;50.890;5.982;2022-10-16T10:47:05;100235.09;;;17.10;69.83
36234;BME280;43467;50.890;5.982;2022-10-16T10:49:55;100234.22;;;17.09;69.60
36234;BME280;43467;50.890;5.982;2022-10-16T10:54:57;100245.31;;;17.16;69.78
36234;BME280;43467;50.890;5.982;2022-10-16T11:02:54;100235.50;;;17.40;68.57
36234;BME280;43467;50.890;5.982;2022-10-16T11:05:38;100235.91;;;17.47;67.25
36234;BME280;43467;50.890;5.982;2022-10-16T11:08:20;100235.69;;;17.50;66.90
36234;BME280;43467;50.890;5.982;2022-10-16T11:10:58;100237.91;;;17.56;67.28
36234;BME280;43467;50.890;5.982;2022-10-16T11:16:21;100246.16;;;17.53;66.57
36234;BME280;43467;50.890;5.982;2022-10-16T11:19:11;100244.47;;;17.52;66.88
36234;BME280;43467;50.890;5.982;2022-10-16T11:21:46;100241.63;;;17.66;67.23
36234;BME280;43467;50.890;5.982;2022-10-16T11:24:44;100233.25;;;17.71;66.67
36234;BME280;43467;50.890;5.982;2022-10-16T11:27:15;100228.66;;;17.73;64.58
36234;BME280;43467;50.890;5.982;2022-10-16T11:29:50;100236.31;;;17.77;65.75
36234;BME280;43467;50.890;5.982;2022-10-16T11:32:24;100234.41;;;17.79;66.54
36234;BME280;43467;50.890;5.982;2022-10-16T11:34:57;100243.56;;;17.88;66.89
36234;BME280;43467;50.890;5.982;2022-10-16T11:37:33;100250.50;;;17.90;67.08
36234;BME280;43467;50.890;5.982;2022-10-16T11:40:32;100245.19;;;18.01;66.59
36234;BME280;43467;50.890;5.982;2022-10-16T11:43:17;100248.38;;;18.06;66.69
36234;BME280;43467;50.890;5.982;2022-10-16T11:45:55;100250.53;;;18.01;66.13
36234;BME280;43467;50.890;5.982;2022-10-16T11:48:43;100258.75;;;18.11;65.42
36234;BME280;43467;50.890;5.982;2022-10-16T11:54:51;100245.88;;;18.27;63.96
36234;BME280;43467;50.890;5.982;2022-10-16T11:57:22;100244.06;;;18.39;64.40
36234;BME280;43467;50.890;5.982;2022-10-16T11:59:52;100250.03;;;18.42;63.97
36234;BME280;43467;50.890;5.982;2022-10-16T12:08:11;100240.84;;;18.69;63.12
36234;BME280;43467;50.890;5.982;2022-10-16T12:10:39;100241.84;;;18.79;63.16
36234;BME280;43467;50.890;5.982;2022-10-16T12:13:38;100240.38;;;18.86;62.03
36234;BME280;43467;50.890;5.982;2022-10-16T12:16:21;100244.03;;;18.85;61.72
36234;BME280;43467;50.890;5.982;2022-10-16T12:18:48;100236.22;;;18.82;62.05
36234;BME280;43467;50.890;5.982;2022-10-16T12:21:15;100240.22;;;18.87;62.02
36234;BME280;43467;50.890;5.982;2022-10-16T12:23:48;100249.38;;;18.96;62.62
36234;BME280;43467;50.890;5.982;2022-10-16T12:26:14;100251.59;;;19.02;60.81
36234;BME280;43467;50.890;5.982;2022-10-16T12:28:48;100243.41;;;19.15;58.98
36234;BME280;43467;50.890;5.982;2022-10-16T12:31:16;100237.19;;;19.14;59.02
36234;BME280;43467;50.890;5.982;2022-10-16T12:34:02;100239.72;;;19.16;58.27
36234;BME280;43467;50.890;5.982;2022-10-16T12:36:32;100228.75;;;19.19;58.62
36234;BME280;43467;50.890;5.982;2022-10-16T12:38:59;100240.09;;;19.22;58.40
36234;BME280;43467;50.890;5.982;2022-10-16T12:41:26;100236.19;;;19.26;58.03
36234;BME280;43467;50.890;5.982;2022-10-16T12:43:52;100233.72;;;19.34;58.82
36234;BME280;43467;50.890;5.982;2022-10-16T12:48:44;100235.13;;;19.61;58.65
36234;BME280;43467;50.890;5.982;2022-10-16T12:51:21;100236.41;;;19.77;59.35
36234;BME280;43467;50.890;5.982;2022-10-16T12:54:19;100235.91;;;19.83;57.52
36234;BME280;43467;50.890;5.982;2022-10-16T13:10:46;100224.41;;;19.92;56.64
36234;BME280;43467;50.890;5.982;2022-10-16T13:16:23;100224.41;;;19.92;58.11
36234;BME280;43467;50.890;5.982;2022-10-16T13:27:14;100225.97;;;19.95;57.61
36234;BME280;43467;50.890;5.982;2022-10-16T13:29:43;100221.72;;;19.81;57.54
36234;BME280;43467;50.890;5.982;2022-10-16T13:32:10;100226.81;;;19.95;58.47
36234;BME280;43467;50.890;5.982;2022-10-16T13:34:47;100233.25;;;20.04;57.07
36234;BME280;43467;50.890;5.982;2022-10-16T13:37:24;100234.53;;;20.10;57.42
36234;BME280;43467;50.890;5.982;2022-10-16T13:39:50;100236.13;;;20.12;57.10
36234;BME280;43467;50.890;5.982;2022-10-16T13:42:27;100243.66;;;19.98;56.53
36234;BME280;43467;50.890;5.982;2022-10-16T13:44:54;100244.44;;;19.88;57.29
36234;BME280;43467;50.890;5.982;2022-10-16T13:47:22;100238.03;;;20.01;56.85
36234;BME280;43467;50.890;5.982;2022-10-16T13:50:04;100226.81;;;19.95;56.81
36234;BME280;43467;50.890;5.982;2022-10-16T13:52:30;100234.50;;;20.00;57.07
36234;BME280;43467;50.890;5.982;2022-10-16T13:54:56;100234.78;;;19.86;57.37
36234;BME280;43467;50.890;5.982;2022-10-16T13:57:23;100233.00;;;19.75;57.29
36234;BME280;43467;50.890;5.982;2022-10-16T13:59:49;100227.91;;;19.72;57.51
36234;BME280;43467;50.890;5.982;2022-10-16T14:02:24;100241.72;;;19.68;57.44
36234;BME280;43467;50.890;5.982;2022-10-16T14:04:51;100238.25;;;19.77;58.30
36234;BME280;43467;50.890;5.982;2022-10-16T14:07:24;100231.31;;;19.74;57.96
36234;BME280;43467;50.890;5.982;2022-10-16T14:09:51;100237.25;;;19.78;58.24
36234;BME280;43467;50.890;5.982;2022-10-16T14:12:17;100241.66;;;19.79;58.29
36234;BME280;43467;50.890;5.982;2022-10-16T14:14:45;100244.34;;;19.79;58.31
36234;BME280;43467;50.890;5.982;2022-10-16T14:17:31;100252.69;;;19.76;56.84
36234;BME280;43467;50.890;5.982;2022-10-16T14:19:59;100247.47;;;19.63;57.29
36234;BME280;43467;50.890;5.982;2022-10-16T14:22:34;100264.28;;;19.65;58.36
36234;BME280;43467;50.890;5.982;2022-10-16T14:25:01;100240.38;;;19.62;59.02
36234;BME280;43467;50.890;5.982;2022-10-16T14:27:32;100239.25;;;19.65;59.51
36234;BME280;43467;50.890;5.982;2022-10-16T14:32:32;100239.66;;;19.60;59.77
36234;BME280;43467;50.890;5.982;2022-10-16T14:34:58;100249.88;;;19.66;60.24
36234;BME280;43467;50.890;5.982;2022-10-16T14:37:25;100247.09;;;19.68;60.16
36234;BME280;43467;50.890;5.982;2022-10-16T14:39:51;100238.78;;;19.71;60.25